Time;durP1;ratioP1;P1;durP2;ratioP2;P2;SDS_P1;SDS_P2;PMS_P1;PMS_P2;Temp;Humidity;BMP_temperature;BMP_pressure;BME280_temperature;BME280_humidity;BME280_pressure;Samples;Min_cycle;Max_cycle;Signal;HPM_P1;HPM_P2
2022/06/19 00:00:34;;;;;;;;;;;15.10;99.90;;;;;;5085898;28;19912;-73
2022/06/19 00:03:01;;;;;;;;;;;15.20;99.90;;;;;;5020290;28;19920;-76
2022/06/19 00:05:26;;;;;;;;;;;15.10;99.90;;;;;;4960802;28;19923;-76
2022/06/19 00:07:52;;;;;;;;;;;15.10;99.90;;;;;;4962644;28;19963;-77
2022/06/19 00:10:17;;;;;;;;;;;15.20;99.90;;;;;;5028518;28;20299;-75
2022/06/19 00:12:43;;;;;;;;;;;15.20;99.90;;;;;;5081724;28;20219;-74
2022/06/19 00:15:09;;;;;;;;;;;15.20;99.90;;;;;;5083097;28;19948;-78
2022/06/19 00:17:34;;;;;;;;;;;15.30;99.90;;;;;;5073965;28;19923;-75
2022/06/19 00:20:00;;;;;;;;;;;15.20;99.90;;;;;;5061305;28;19924;-75
2022/06/19 00:22:25;;;;;;;;;;;15.30;99.90;;;;;;5070479;28;19915;-75
2022/06/19 00:24:51;;;;;;;;;;;15.30;99.90;;;;;;5087103;28;19948;-75
2022/06/19 00:27:16;;;;;;;;;;;15.30;99.90;;;;;;5038968;28;19920;-75
2022/06/19 00:29:42;;;;;;;;;;;15.30;99.90;;;;;;5092125;28;20018;-73
2022/06/19 00:32:08;;;;;;;;;;;15.20;99.90;;;;;;5067749;28;19923;-75
2022/06/19 00:34:34;;;;;;;;;;;15.20;99.90;;;;;;5084150;28;19916;-76
2022/06/19 00:37:01;;;;;;;;;;;15.20;99.90;;;;;;5086192;28;20203;-79
2022/06/19 00:39:28;;;;;;;;;;;15.30;99.90;;;;;;5074602;28;19912;-76
2022/06/19 00:41:53;;;;;;;;;;;15.40;99.90;;;;;;5076826;28;19916;-75
2022/06/19 00:44:19;;;;;;;;;;;15.50;99.90;;;;;;5085206;28;20042;-74
2022/06/19 00:46:45;;;;;;;;;;;15.60;99.90;;;;;;5068871;28;19912;-77
2022/06/19 00:49:19;;;;;;;;;;;15.80;99.90;;;;;;5075298;28;19912;-76
2022/06/19 00:51:44;;;;;;;;;;;15.80;99.90;;;;;;5084188;28;19920;-75
2022/06/19 00:54:11;;;;;;;;;;;15.90;99.90;;;;;;5090312;28;19912;-77
2022/06/19 00:56:37;;;;;;;;;;;15.90;99.90;;;;;;5087100;28;19916;-74
2022/06/19 00:59:03;;;;;;;;;;;15.70;99.90;;;;;;5077814;28;19918;-76
2022/06/19 01:01:29;;;;;;;;;;;15.50;99.90;;;;;;5087059;28;19916;-76
2022/06/19 01:04:01;;;;;;;;;;;15.40;99.90;;;;;;5089842;28;19916;-77
2022/06/19 01:06:27;;;;;;;;;;;15.30;99.90;;;;;;5088105;28;20327;-74
2022/06/19 01:08:52;;;;;;;;;;;15.30;99.90;;;;;;5081959;28;19912;-72
2022/06/19 01:11:19;;;;;;;;;;;15.30;99.90;;;;;;5086297;28;19940;-76
2022/06/19 01:13:45;;;;;;;;;;;15.30;99.70;;;;;;5087417;28;19926;-74
2022/06/19 01:16:11;;;;;;;;;;;15.30;99.30;;;;;;5070524;28;20302;-75
2022/06/19 01:18:37;;;;;;;;;;;15.40;99.00;;;;;;5088434;28;19913;-75
2022/06/19 01:21:16;;;;;;;;;;;15.40;99.50;;;;;;5092075;28;19912;-73
2022/06/19 01:23:45;;;;;;;;;;;15.40;99.10;;;;;;5085816;28;19963;-75
2022/06/19 01:26:12;;;;;;;;;;;15.40;99.10;;;;;;5079068;28;19916;-77
2022/06/19 01:28:54;;;;;;;;;;;15.40;98.10;;;;;;5070917;28;19916;-77
2022/06/19 01:31:22;;;;;;;;;;;15.40;98.30;;;;;;5087846;28;19916;-75
2022/06/19 01:37:04;;;;;;;;;;;15.40;98.50;;;;;;5081636;28;20214;-73
2022/06/19 01:39:34;;;;;;;;;;;15.40;97.40;;;;;;5081935;28;19958;-76
2022/06/19 01:42:01;;;;;;;;;;;15.40;99.00;;;;;;5082335;28;20263;-72
2022/06/19 01:44:27;;;;;;;;;;;15.40;99.90;;;;;;5060848;28;19913;-78
2022/06/19 01:46:53;;;;;;;;;;;15.40;99.90;;;;;;5088528;28;19912;-76
2022/06/19 01:49:19;;;;;;;;;;;15.30;99.90;;;;;;5062345;28;19916;-76
2022/06/19 01:51:44;;;;;;;;;;;15.40;99.90;;;;;;5069051;28;20267;-76
2022/06/19 01:54:18;;;;;;;;;;;15.40;99.90;;;;;;5079921;28;19908;-76
2022/06/19 01:56:44;;;;;;;;;;;15.30;99.90;;;;;;5086441;28;19916;-75
2022/06/19 01:59:10;;;;;;;;;;;15.40;99.90;;;;;;5095805;28;19915;-76
2022/06/19 02:01:36;;;;;;;;;;;15.30;99.90;;;;;;5093473;28;19912;-78
2022/06/19 02:04:04;;;;;;;;;;;15.30;99.90;;;;;;5086402;28;19961;-74
2022/06/19 02:06:31;;;;;;;;;;;15.40;99.90;;;;;;5073758;28;19917;-76
2022/06/19 02:08:58;;;;;;;;;;;15.40;99.90;;;;;;5069105;28;20005;-75
2022/06/19 02:11:25;;;;;;;;;;;15.40;99.90;;;;;;5071474;28;19916;-77
2022/06/19 02:13:50;;;;;;;;;;;15.40;99.90;;;;;;5071300;28;19928;-73
2022/06/19 02:16:18;;;;;;;;;;;15.40;99.90;;;;;;5074269;28;19923;-76
2022/06/19 02:18:46;;;;;;;;;;;15.40;99.90;;;;;;5093911;28;19916;-74
2022/06/19 02:21:18;;;;;;;;;;;15.40;99.90;;;;;;5071849;28;19922;-76
2022/06/19 02:23:44;;;;;;;;;;;15.40;99.90;;;;;;5092383;28;19923;-76
2022/06/19 02:26:10;;;;;;;;;;;15.50;99.90;;;;;;5074612;28;19920;-77
2022/06/19 02:28:37;;;;;;;;;;;15.50;99.90;;;;;;5049015;28;19919;-76
2022/06/19 02:31:06;;;;;;;;;;;15.50;99.90;;;;;;5093041;28;20013;-74
2022/06/19 02:33:33;;;;;;;;;;;15.50;99.90;;;;;;5086276;28;20298;-75
2022/06/19 02:35:59;;;;;;;;;;;15.40;99.90;;;;;;5091522;28;19913;-76
2022/06/19 02:38:25;;;;;;;;;;;15.30;99.90;;;;;;5070207;28;20304;-79
2022/06/19 02:41:04;;;;;;;;;;;15.30;99.90;;;;;;5086915;28;19969;-76
2022/06/19 02:43:32;;;;;;;;;;;15.40;99.90;;;;;;5084508;28;19965;-76
2022/06/19 02:45:58;;;;;;;;;;;15.40;99.90;;;;;;5070545;28;19993;-78
2022/06/19 02:48:27;;;;;;;;;;;15.30;99.90;;;;;;5081752;28;19916;-77
2022/06/19 02:50:53;;;;;;;;;;;15.30;99.90;;;;;;5075697;28;19961;-75
2022/06/19 02:53:19;;;;;;;;;;;15.30;99.90;;;;;;5097046;28;19969;-79
2022/06/19 02:55:45;;;;;;;;;;;15.30;99.90;;;;;;5084916;28;19919;-79
2022/06/19 02:58:11;;;;;;;;;;;15.30;99.90;;;;;;5084787;28;19917;-77
2022/06/19 03:00:37;;;;;;;;;;;15.30;99.90;;;;;;5074672;28;19934;-74
2022/06/19 03:03:07;;;;;;;;;;;15.30;99.90;;;;;;5090344;28;19978;-74
2022/06/19 03:05:33;;;;;;;;;;;15.30;99.90;;;;;;5091737;28;20015;-81
2022/06/19 03:07:59;;;;;;;;;;;15.30;99.90;;;;;;5083793;28;20002;-78
2022/06/19 03:10:25;;;;;;;;;;;15.30;99.90;;;;;;5086615;28;19919;-80
2022/06/19 03:12:50;;;;;;;;;;;15.30;99.90;;;;;;5083767;28;19920;-82
2022/06/19 03:15:16;;;;;;;;;;;15.30;99.90;;;;;;5071621;28;19916;-80
2022/06/19 03:17:42;;;;;;;;;;;15.40;99.90;;;;;;5085223;28;19919;-76
2022/06/19 03:20:10;;;;;;;;;;;15.40;99.90;;;;;;5092767;28;20508;-75
2022/06/19 03:22:36;;;;;;;;;;;15.40;99.90;;;;;;5089070;28;19959;-77
2022/06/19 03:25:01;;;;;;;;;;;15.20;99.90;;;;;;5090214;28;19947;-74
2022/06/19 03:27:27;;;;;;;;;;;14.90;99.90;;;;;;5077908;28;19924;-77
2022/06/19 03:29:52;;;;;;;;;;;14.70;99.90;;;;;;5082000;28;19912;-76
2022/06/19 03:32:18;;;;;;;;;;;14.50;99.90;;;;;;5079503;28;20061;-74
2022/06/19 03:34:43;;;;;;;;;;;14.30;99.90;;;;;;5093286;28;20022;-75
2022/06/19 03:37:09;;;;;;;;;;;14.30;99.90;;;;;;5066698;28;20372;-76
2022/06/19 03:39:35;;;;;;;;;;;14.30;99.90;;;;;;5091492;28;19912;-74
2022/06/19 03:42:01;;;;;;;;;;;14.20;99.90;;;;;;5088198;28;20056;-77
2022/06/19 03:44:27;;;;;;;;;;;14.30;99.90;;;;;;5073341;28;19924;-77
2022/06/19 03:46:53;;;;;;;;;;;14.20;99.90;;;;;;5086168;28;19924;-75
2022/06/19 03:49:18;;;;;;;;;;;14.30;99.90;;;;;;5072016;28;20010;-76
2022/06/19 03:51:44;;;;;;;;;;;14.30;99.90;;;;;;5069912;28;19920;-77
2022/06/19 03:54:10;;;;;;;;;;;14.30;99.90;;;;;;5089363;28;19916;-76
2022/06/19 03:56:36;;;;;;;;;;;14.30;99.90;;;;;;5080853;28;19912;-78
2022/06/19 03:59:02;;;;;;;;;;;14.30;99.90;;;;;;5042569;28;19919;-81
2022/06/19 04:01:30;;;;;;;;;;;14.30;99.90;;;;;;5090672;28;19917;-79
2022/06/19 04:03:56;;;;;;;;;;;14.30;99.90;;;;;;5089838;28;20325;-77
2022/06/19 04:06:23;;;;;;;;;;;14.30;99.90;;;;;;5080039;28;19999;-76
2022/06/19 04:08:48;;;;;;;;;;;14.30;99.90;;;;;;5086468;28;19969;-75
2022/06/19 04:11:15;;;;;;;;;;;14.40;99.90;;;;;;5067551;28;19917;-78
2022/06/19 04:13:41;;;;;;;;;;;14.40;99.90;;;;;;5070243;28;19924;-76
2022/06/19 04:16:07;;;;;;;;;;;14.40;99.90;;;;;;5071706;28;20299;-75
2022/06/19 04:18:33;;;;;;;;;;;14.30;99.90;;;;;;5086774;28;19943;-74
2022/06/19 04:20:59;;;;;;;;;;;14.30;99.90;;;;;;5078948;28;19921;-75
2022/06/19 04:23:25;;;;;;;;;;;14.30;99.90;;;;;;5075420;28;19919;-75
2022/06/19 04:25:52;;;;;;;;;;;14.20;99.90;;;;;;5078699;28;20015;-80
2022/06/19 04:28:19;;;;;;;;;;;14.20;99.90;;;;;;5075120;28;19922;-77
2022/06/19 04:30:46;;;;;;;;;;;14.00;99.90;;;;;;5075723;28;19925;-72
2022/06/19 04:33:14;;;;;;;;;;;13.80;99.90;;;;;;5077925;28;20011;-70
2022/06/19 04:35:40;;;;;;;;;;;13.50;99.90;;;;;;5084330;28;19919;-77
2022/06/19 04:38:05;;;;;;;;;;;13.20;99.90;;;;;;5071160;28;19920;-75
2022/06/19 04:40:33;;;;;;;;;;;13.20;99.90;;;;;;5085953;28;20180;-78
2022/06/19 04:42:58;;;;;;;;;;;13.20;99.90;;;;;;5093289;28;20045;-75
2022/06/19 04:45:24;;;;;;;;;;;13.20;99.90;;;;;;5082900;28;20313;-72
2022/06/19 04:47:49;;;;;;;;;;;13.30;99.90;;;;;;5088786;28;20010;-73
2022/06/19 04:50:15;;;;;;;;;;;13.40;99.90;;;;;;5081519;28;19912;-73
2022/06/19 04:52:41;;;;;;;;;;;13.50;99.90;;;;;;5084191;28;19999;-72
2022/06/19 04:55:07;;;;;;;;;;;13.60;99.90;;;;;;5082745;28;20012;-74
2022/06/19 04:57:33;;;;;;;;;;;13.70;99.90;;;;;;5040764;28;20226;-72
2022/06/19 04:59:58;;;;;;;;;;;13.70;99.90;;;;;;5076227;28;19916;-73
2022/06/19 05:02:24;;;;;;;;;;;13.80;99.90;;;;;;5076615;28;19916;-75
2022/06/19 05:04:50;;;;;;;;;;;13.90;99.90;;;;;;5074762;28;19909;-72
2022/06/19 05:07:15;;;;;;;;;;;14.10;99.90;;;;;;5074671;28;19908;-75
2022/06/19 05:09:41;;;;;;;;;;;14.20;99.90;;;;;;5080158;28;19963;-73
2022/06/19 05:12:06;;;;;;;;;;;14.30;99.90;;;;;;5087060;28;19970;-73
2022/06/19 05:14:32;;;;;;;;;;;14.40;99.90;;;;;;5077156;28;19963;-73
2022/06/19 05:16:57;;;;;;;;;;;14.40;99.90;;;;;;5010532;28;20326;-72
2022/06/19 05:19:23;;;;;;;;;;;14.40;99.90;;;;;;4980452;28;20419;-73
2022/06/19 05:21:49;;;;;;;;;;;14.40;99.90;;;;;;4963164;28;19971;-75
2022/06/19 05:24:14;;;;;;;;;;;14.40;99.90;;;;;;4983079;28;19943;-74
2022/06/19 05:26:40;;;;;;;;;;;14.40;99.90;;;;;;4965190;28;20499;-73
2022/06/19 05:29:05;;;;;;;;;;;14.30;99.90;;;;;;4966270;28;19923;-73
2022/06/19 05:31:32;;;;;;;;;;;14.30;99.90;;;;;;4985053;28;19924;-73
2022/06/19 05:33:58;;;;;;;;;;;14.30;99.90;;;;;;4987067;28;19922;-73
2022/06/19 05:36:26;;;;;;;;;;;14.30;99.90;;;;;;4986674;28;20003;-75
2022/06/19 05:38:51;;;;;;;;;;;14.30;99.90;;;;;;4982092;28;20333;-79
2022/06/19 05:41:17;;;;;;;;;;;14.20;99.90;;;;;;4963265;28;19915;-74
2022/06/19 05:43:42;;;;;;;;;;;14.20;99.90;;;;;;4989022;28;20056;-72
2022/06/19 05:46:15;;;;;;;;;;;14.30;99.90;;;;;;4970747;28;19924;-74
2022/06/19 05:48:41;;;;;;;;;;;14.30;99.90;;;;;;4987491;28;20708;-71
2022/06/19 05:51:08;;;;;;;;;;;14.30;99.90;;;;;;4986036;28;23675;-73
2022/06/19 05:53:35;;;;;;;;;;;14.40;99.90;;;;;;4970945;28;19923;-72
2022/06/19 05:56:01;;;;;;;;;;;14.40;99.90;;;;;;4988055;28;19963;-74
2022/06/19 05:58:27;;;;;;;;;;;14.30;99.90;;;;;;4970330;28;19916;-72
2022/06/19 06:00:53;;;;;;;;;;;14.30;99.90;;;;;;4983064;28;23532;-74
2022/06/19 06:03:19;;;;;;;;;;;14.30;99.90;;;;;;4986344;28;20682;-74
2022/06/19 06:05:45;;;;;;;;;;;14.40;99.90;;;;;;4986940;28;19926;-75
2022/06/19 06:08:11;;;;;;;;;;;14.40;99.90;;;;;;4985679;28;20882;-75
2022/06/19 06:10:36;;;;;;;;;;;14.50;99.90;;;;;;4966475;28;21462;-73
2022/06/19 06:13:02;;;;;;;;;;;14.50;99.90;;;;;;4982143;28;20626;-74
2022/06/19 06:15:27;;;;;;;;;;;14.50;99.90;;;;;;5003916;28;20039;-75
2022/06/19 06:17:53;;;;;;;;;;;14.40;99.90;;;;;;5071094;28;19936;-74
2022/06/19 06:20:19;;;;;;;;;;;14.40;99.90;;;;;;5056258;28;19916;-74
2022/06/19 06:22:44;;;;;;;;;;;14.40;99.90;;;;;;5085629;28;19935;-74
2022/06/19 06:25:10;;;;;;;;;;;14.40;99.90;;;;;;5074045;28;19919;-74
2022/06/19 06:27:37;;;;;;;;;;;14.30;99.90;;;;;;5081505;28;19912;-76
2022/06/19 06:30:03;;;;;;;;;;;14.30;99.90;;;;;;5064208;28;19912;-77
2022/06/19 06:32:28;;;;;;;;;;;14.20;99.90;;;;;;5077442;28;19930;-74
2022/06/19 06:34:54;;;;;;;;;;;14.30;99.90;;;;;;5082222;28;19931;-77
2022/06/19 06:37:20;;;;;;;;;;;14.20;99.90;;;;;;5084555;28;19966;-75
2022/06/19 06:39:45;;;;;;;;;;;14.20;99.90;;;;;;5083911;28;19999;-81
2022/06/19 06:42:11;;;;;;;;;;;14.20;99.90;;;;;;5056808;28;19920;-77
2022/06/19 06:44:36;;;;;;;;;;;14.30;99.90;;;;;;5090692;28;19920;-77
2022/06/19 06:47:02;;;;;;;;;;;14.30;99.90;;;;;;5092518;28;19912;-76
2022/06/19 06:49:28;;;;;;;;;;;14.30;99.90;;;;;;5074972;28;19950;-74
2022/06/19 06:51:53;;;;;;;;;;;14.30;99.90;;;;;;5088857;28;19920;-74
2022/06/19 06:54:19;;;;;;;;;;;14.30;99.90;;;;;;5084414;28;19955;-74
2022/06/19 06:56:44;;;;;;;;;;;14.30;99.90;;;;;;5090952;28;19912;-81
2022/06/19 06:59:10;;;;;;;;;;;14.30;99.90;;;;;;5070824;28;19961;-82
2022/06/19 07:01:36;;;;;;;;;;;14.40;99.90;;;;;;5055048;28;19916;-74
2022/06/19 07:04:01;;;;;;;;;;;14.30;99.90;;;;;;5084727;28;19912;-73
2022/06/19 07:06:30;;;;;;;;;;;14.30;99.90;;;;;;5081418;28;19916;-73
2022/06/19 07:08:57;;;;;;;;;;;14.30;99.90;;;;;;5073030;28;20218;-74
2022/06/19 07:11:32;;;;;;;;;;;14.30;99.90;;;;;;5091587;28;19959;-72
2022/06/19 07:13:58;;;;;;;;;;;14.20;99.90;;;;;;5092602;28;19924;-72
2022/06/19 07:16:23;;;;;;;;;;;14.20;99.90;;;;;;5087417;28;20099;-72
2022/06/19 07:18:49;;;;;;;;;;;14.20;99.90;;;;;;5090230;28;19912;-73
2022/06/19 07:21:15;;;;;;;;;;;14.10;99.90;;;;;;5094335;28;19912;-73
2022/06/19 07:23:41;;;;;;;;;;;14.10;99.90;;;;;;5070419;28;19912;-73
2022/06/19 07:26:13;;;;;;;;;;;14.20;99.90;;;;;;5071274;28;19913;-73
2022/06/19 07:28:40;;;;;;;;;;;14.20;99.90;;;;;;5073873;28;19916;-73
2022/06/19 07:31:06;;;;;;;;;;;14.10;99.90;;;;;;5092847;28;20013;-73
2022/06/19 07:33:32;;;;;;;;;;;14.10;99.90;;;;;;5088712;28;19934;-73
2022/06/19 07:35:58;;;;;;;;;;;14.20;99.90;;;;;;5087869;28;20329;-73
2022/06/19 07:38:23;;;;;;;;;;;14.10;99.90;;;;;;5091697;28;20006;-72
2022/06/19 07:40:49;;;;;;;;;;;14.10;99.90;;;;;;5090411;28;20223;-74
2022/06/19 07:43:14;;;;;;;;;;;14.10;99.90;;;;;;5086880;28;19912;-73
2022/06/19 07:45:41;;;;;;;;;;;14.10;99.90;;;;;;5074216;28;19991;-73
2022/06/19 07:50:50;;;;;;;;;;;14.20;99.90;;;;;;4991743;28;19958;-73
2022/06/19 07:53:16;;;;;;;;;;;14.10;99.90;;;;;;4981307;28;20227;-72
2022/06/19 07:55:41;;;;;;;;;;;14.10;99.90;;;;;;4978198;28;19962;-72
2022/06/19 07:58:08;;;;;;;;;;;14.10;99.90;;;;;;4980431;28;19922;-72
2022/06/19 08:00:35;;;;;;;;;;;14.00;99.90;;;;;;4981355;28;19915;-74
2022/06/19 08:03:01;;;;;;;;;;;14.10;99.90;;;;;;4975876;28;19923;-72
2022/06/19 08:05:28;;;;;;;;;;;14.00;99.90;;;;;;4975577;28;21022;-73
2022/06/19 08:07:54;;;;;;;;;;;14.00;99.90;;;;;;4954550;28;20285;-73
2022/06/19 08:10:22;;;;;;;;;;;14.10;99.90;;;;;;4953267;28;20799;-71
2022/06/19 08:12:48;;;;;;;;;;;14.10;99.90;;;;;;4979048;28;19984;-74
2022/06/19 08:15:14;;;;;;;;;;;14.10;99.90;;;;;;4975789;28;20606;-72
2022/06/19 08:17:39;;;;;;;;;;;14.20;99.90;;;;;;4977822;28;19973;-72
2022/06/19 08:20:05;;;;;;;;;;;14.20;99.90;;;;;;4982575;28;19916;-74
2022/06/19 08:22:31;;;;;;;;;;;14.20;99.90;;;;;;4961266;28;20728;-73
2022/06/19 08:24:56;;;;;;;;;;;14.20;99.90;;;;;;4983152;28;19916;-74
2022/06/19 08:27:22;;;;;;;;;;;14.30;99.90;;;;;;4977723;28;19943;-71
2022/06/19 08:29:47;;;;;;;;;;;14.40;99.90;;;;;;4983556;28;19915;-72
2022/06/19 08:32:13;;;;;;;;;;;14.50;99.90;;;;;;4960703;28;24128;-73
2022/06/19 08:34:38;;;;;;;;;;;14.50;99.90;;;;;;4978154;28;20062;-73
2022/06/19 08:37:06;;;;;;;;;;;14.60;99.90;;;;;;4980604;28;19916;-72
2022/06/19 08:39:32;;;;;;;;;;;14.70;99.90;;;;;;4965320;28;20542;-74
2022/06/19 08:42:05;;;;;;;;;;;14.70;99.90;;;;;;4960626;28;20014;-73
2022/06/19 08:44:34;;;;;;;;;;;14.60;99.90;;;;;;4978004;28;19923;-76
2022/06/19 08:47:12;;;;;;;;;;;14.60;99.90;;;;;;4977113;28;19916;-73
2022/06/19 08:49:38;;;;;;;;;;;14.60;99.90;;;;;;5008296;28;20004;-76
2022/06/19 08:52:12;;;;;;;;;;;14.50;99.90;;;;;;5067990;28;20319;-76
2022/06/19 08:54:53;;;;;;;;;;;14.40;99.90;;;;;;5082469;28;19916;-78
2022/06/19 08:57:19;;;;;;;;;;;14.40;99.90;;;;;;5071195;28;19916;-76
2022/06/19 09:00:09;;;;;;;;;;;14.40;99.90;;;;;;5085798;28;19908;-74
2022/06/19 09:02:41;;;;;;;;;;;14.30;99.90;;;;;;5082112;28;19942;-80
2022/06/19 09:05:45;;;;;;;;;;;14.20;99.90;;;;;;5071877;28;19962;-74
2022/06/19 09:08:34;;;;;;;;;;;14.30;99.90;;;;;;5086971;28;19913;-81
2022/06/19 09:11:12;;;;;;;;;;;14.20;99.90;;;;;;5063441;28;19927;-76
2022/06/19 09:13:43;;;;;;;;;;;14.30;99.90;;;;;;5083914;28;19956;-74
2022/06/19 09:16:27;;;;;;;;;;;14.20;99.90;;;;;;5080818;28;19917;-74
2022/06/19 09:19:09;;;;;;;;;;;14.30;99.90;;;;;;5078836;28;19919;-79
2022/06/19 09:21:41;;;;;;;;;;;14.30;99.90;;;;;;5071783;28;21487;-79
2022/06/19 09:24:10;;;;;;;;;;;14.30;99.90;;;;;;5080835;28;19916;-78
2022/06/19 09:26:41;;;;;;;;;;;14.20;99.90;;;;;;5032960;28;20018;-73
2022/06/19 09:29:12;;;;;;;;;;;14.20;99.90;;;;;;4980883;28;19919;-74
2022/06/19 09:31:42;;;;;;;;;;;14.20;99.90;;;;;;4962956;28;19927;-73
2022/06/19 09:34:14;;;;;;;;;;;14.20;99.90;;;;;;4964893;28;19921;-73
2022/06/19 09:36:46;;;;;;;;;;;14.10;99.90;;;;;;4948923;28;20002;-73
2022/06/19 09:39:18;;;;;;;;;;;14.10;99.90;;;;;;4964449;28;19917;-76
2022/06/19 09:41:48;;;;;;;;;;;14.10;99.90;;;;;;4982310;28;19951;-81
2022/06/19 09:44:25;;;;;;;;;;;14.20;99.90;;;;;;4980490;28;23797;-76
2022/06/19 09:46:56;;;;;;;;;;;14.20;99.90;;;;;;4979751;28;19923;-76
2022/06/19 09:49:24;;;;;;;;;;;14.20;99.90;;;;;;4981212;28;19924;-75
2022/06/19 09:51:58;;;;;;;;;;;14.20;99.90;;;;;;4980471;28;20209;-76
2022/06/19 09:54:31;;;;;;;;;;;14.30;99.90;;;;;;4962852;28;19927;-81
2022/06/19 09:56:56;;;;;;;;;;;14.40;99.90;;;;;;4984207;28;19926;-77
2022/06/19 09:59:32;;;;;;;;;;;14.40;99.90;;;;;;4986694;28;19916;-76
2022/06/19 10:02:00;;;;;;;;;;;14.40;99.90;;;;;;4988791;28;20012;-77
2022/06/19 10:04:31;;;;;;;;;;;14.40;99.90;;;;;;4964654;28;21028;-80
2022/06/19 10:06:58;;;;;;;;;;;14.50;99.90;;;;;;4984216;28;19916;-73
2022/06/19 10:09:39;;;;;;;;;;;14.50;99.90;;;;;;4986064;28;19916;-75
2022/06/19 10:12:09;;;;;;;;;;;14.70;99.90;;;;;;4981267;28;19924;-74
2022/06/19 10:14:45;;;;;;;;;;;15.00;99.90;;;;;;4985923;28;19927;-74
2022/06/19 10:17:28;;;;;;;;;;;15.30;99.90;;;;;;4967535;28;19916;-74
2022/06/19 10:20:17;;;;;;;;;;;15.40;99.90;;;;;;4966449;28;19927;-77
2022/06/19 10:22:51;;;;;;;;;;;15.60;99.90;;;;;;4975829;28;20875;-76
2022/06/19 10:25:26;;;;;;;;;;;15.60;99.90;;;;;;4985601;28;19969;-74
2022/06/19 10:28:03;;;;;;;;;;;15.60;99.90;;;;;;4990937;28;19989;-74
2022/06/19 10:30:36;;;;;;;;;;;15.60;99.90;;;;;;4973239;28;19923;-75
2022/06/19 10:33:07;;;;;;;;;;;15.50;99.90;;;;;;4988469;28;20986;-74
2022/06/19 10:35:39;;;;;;;;;;;15.40;99.90;;;;;;4984513;28;19965;-78
2022/06/19 10:38:05;;;;;;;;;;;15.50;99.90;;;;;;4981635;28;19915;-72
2022/06/19 10:40:49;;;;;;;;;;;15.40;99.90;;;;;;4961786;28;24642;-75
2022/06/19 10:43:41;;;;;;;;;;;15.50;99.90;;;;;;4983197;28;19925;-73
2022/06/19 10:46:07;;;;;;;;;;;15.40;99.90;;;;;;4978721;28;19920;-75
2022/06/19 10:48:45;;;;;;;;;;;15.40;99.90;;;;;;4983298;28;22249;-75
2022/06/19 10:51:27;;;;;;;;;;;15.50;99.90;;;;;;4978740;28;20435;-78
2022/06/19 10:54:09;;;;;;;;;;;15.40;99.90;;;;;;4982573;28;19919;-74
2022/06/19 10:56:49;;;;;;;;;;;15.50;99.90;;;;;;4979675;28;19923;-75
2022/06/19 10:59:15;;;;;;;;;;;15.40;99.90;;;;;;4961007;28;20726;-78
2022/06/19 11:04:30;;;;;;;;;;;15.40;99.90;;;;;;4984591;28;19923;-73
2022/06/19 11:07:16;;;;;;;;;;;15.40;99.90;;;;;;4984177;28;24071;-79
2022/06/19 11:09:53;;;;;;;;;;;15.50;99.90;;;;;;4987301;28;19927;-74
2022/06/19 11:12:18;;;;;;;;;;;15.60;99.90;;;;;;4967860;28;19924;-76
2022/06/19 11:14:47;;;;;;;;;;;15.70;99.90;;;;;;4986549;28;20117;-76
2022/06/19 11:17:14;;;;;;;;;;;15.70;99.90;;;;;;4983736;28;19923;-75
2022/06/19 11:19:48;;;;;;;;;;;15.70;99.90;;;;;;4980983;28;19936;-73
2022/06/19 11:22:32;;;;;;;;;;;15.80;99.90;;;;;;4966159;28;20277;-75
2022/06/19 11:25:17;;;;;;;;;;;15.80;99.90;;;;;;5069203;28;20873;-73
2022/06/19 11:27:49;;;;;;;;;;;15.80;99.90;;;;;;5015345;28;19963;-75
2022/06/19 11:30:14;;;;;;;;;;;15.80;99.90;;;;;;4982012;28;19917;-75
2022/06/19 11:32:47;;;;;;;;;;;15.90;99.90;;;;;;4978644;28;20018;-76
2022/06/19 11:35:13;;;;;;;;;;;16.10;99.90;;;;;;4967334;28;19920;-75
2022/06/19 11:37:48;;;;;;;;;;;16.30;99.90;;;;;;4963221;28;19931;-75
2022/06/19 11:40:18;;;;;;;;;;;16.40;99.90;;;;;;4983792;28;19916;-76
2022/06/19 11:42:49;;;;;;;;;;;16.30;99.90;;;;;;4981945;28;20230;-74
2022/06/19 11:45:14;;;;;;;;;;;16.20;99.90;;;;;;4982892;28;20047;-75
2022/06/19 11:47:55;;;;;;;;;;;16.30;99.90;;;;;;4980190;28;19988;-74
2022/06/19 11:50:22;;;;;;;;;;;16.40;99.90;;;;;;4966185;28;19915;-74
2022/06/19 11:52:50;;;;;;;;;;;16.50;99.90;;;;;;4981900;28;19941;-75
2022/06/19 11:55:20;;;;;;;;;;;16.90;99.90;;;;;;4979394;28;24152;-75
2022/06/19 11:57:48;;;;;;;;;;;17.20;99.90;;;;;;4966329;28;20549;-72
2022/06/19 12:00:22;;;;;;;;;;;17.40;99.90;;;;;;4982536;28;19916;-76
2022/06/19 12:02:52;;;;;;;;;;;17.40;99.90;;;;;;4980028;28;19916;-74
2022/06/19 12:05:21;;;;;;;;;;;17.40;99.90;;;;;;4976149;28;19916;-73
2022/06/19 12:07:46;;;;;;;;;;;17.30;99.90;;;;;;4980113;28;19916;-74
2022/06/19 12:10:15;;;;;;;;;;;17.50;99.90;;;;;;4993581;28;19916;-75
2022/06/19 12:12:51;;;;;;;;;;;17.90;99.90;;;;;;4980612;28;24217;-74
2022/06/19 12:15:21;;;;;;;;;;;18.30;99.90;;;;;;4982104;28;19916;-74
2022/06/19 12:17:46;;;;;;;;;;;18.50;99.90;;;;;;4962800;28;20653;-76
2022/06/19 12:20:12;;;;;;;;;;;18.60;99.90;;;;;;4984485;28;19923;-76
2022/06/19 12:22:44;;;;;;;;;;;18.70;99.90;;;;;;4963634;28;20475;-73
2022/06/19 12:25:15;;;;;;;;;;;19.00;99.90;;;;;;4982740;28;19916;-75
2022/06/19 12:28:04;;;;;;;;;;;18.70;99.90;;;;;;4982050;28;23967;-75
2022/06/19 12:30:56;;;;;;;;;;;18.70;99.90;;;;;;4953618;28;19920;-75
2022/06/19 12:33:26;;;;;;;;;;;18.70;99.90;;;;;;4976559;28;19927;-73
2022/06/19 12:35:52;;;;;;;;;;;18.60;99.90;;;;;;4978908;28;19935;-76
2022/06/19 12:38:19;;;;;;;;;;;18.80;99.90;;;;;;4982582;28;21413;-73
2022/06/19 12:41:03;;;;;;;;;;;18.90;99.90;;;;;;4959861;28;19921;-76
2022/06/19 12:43:47;;;;;;;;;;;19.00;99.90;;;;;;4978449;28;19923;-74
2022/06/19 12:46:21;;;;;;;;;;;19.10;99.90;;;;;;4983189;28;20006;-75
2022/06/19 12:48:55;;;;;;;;;;;19.30;99.90;;;;;;4978987;28;19916;-79
2022/06/19 12:51:36;;;;;;;;;;;19.30;99.90;;;;;;4961114;28;20568;-76
2022/06/19 12:54:16;;;;;;;;;;;19.40;99.90;;;;;;4981215;28;24036;-76
2022/06/19 12:56:51;;;;;;;;;;;19.50;99.90;;;;;;4979746;28;20226;-76
2022/06/19 12:59:25;;;;;;;;;;;19.70;99.90;;;;;;4981998;28;20014;-73
2022/06/19 13:02:13;;;;;;;;;;;19.40;99.90;;;;;;4981691;28;19959;-76
2022/06/19 13:04:45;;;;;;;;;;;19.90;99.90;;;;;;4981323;28;19998;-74
2022/06/19 13:07:29;;;;;;;;;;;19.90;99.90;;;;;;4978311;28;19927;-74
2022/06/19 13:10:01;;;;;;;;;;;20.10;99.90;;;;;;4977476;28;20026;-71
2022/06/19 13:12:42;;;;;;;;;;;20.00;99.90;;;;;;4978266;28;19934;-77
2022/06/19 13:15:08;;;;;;;;;;;19.70;99.90;;;;;;4978011;28;19926;-73
2022/06/19 13:17:52;;;;;;;;;;;19.50;99.90;;;;;;5064133;28;19916;-75
2022/06/19 13:20:23;;;;;;;;;;;19.40;99.90;;;;;;5074996;28;19982;-75
2022/06/19 13:22:58;;;;;;;;;;;18.90;99.90;;;;;;5085239;28;19916;-78
2022/06/19 13:25:24;;;;;;;;;;;18.70;99.90;;;;;;5035887;28;19924;-74
2022/06/19 13:28:08;;;;;;;;;;;18.50;99.90;;;;;;4980900;28;20033;-75
2022/06/19 13:30:34;;;;;;;;;;;18.50;99.90;;;;;;4982953;28;19982;-77
2022/06/19 13:33:04;;;;;;;;;;;18.50;99.90;;;;;;4977692;28;19920;-74
2022/06/19 13:35:45;;;;;;;;;;;18.90;99.90;;;;;;4977109;28;19943;-74
2022/06/19 13:38:29;;;;;;;;;;;18.90;99.90;;;;;;4979498;28;19916;-74
2022/06/19 13:40:55;;;;;;;;;;;19.00;99.90;;;;;;4977331;28;19966;-74
2022/06/19 13:43:20;;;;;;;;;;;19.10;99.90;;;;;;4960490;28;21027;-74
2022/06/19 13:45:55;;;;;;;;;;;19.10;99.90;;;;;;4977454;28;19916;-76
2022/06/19 13:48:25;;;;;;;;;;;18.80;99.90;;;;;;4977815;28;20925;-74
2022/06/19 13:50:58;;;;;;;;;;;18.50;99.90;;;;;;4975287;28;19922;-78
2022/06/19 13:53:27;;;;;;;;;;;18.40;99.90;;;;;;4991424;28;19920;-77
2022/06/19 13:55:55;;;;;;;;;;;18.30;99.90;;;;;;5004595;28;19939;-74
2022/06/19 13:58:36;;;;;;;;;;;18.30;99.90;;;;;;5003347;28;19916;-80
2022/06/19 14:01:16;;;;;;;;;;;18.20;99.90;;;;;;5000513;28;19916;-76
2022/06/19 14:06:47;;;;;;;;;;;18.40;99.90;;;;;;5001060;28;23706;-76
2022/06/19 14:09:13;;;;;;;;;;;18.20;99.90;;;;;;5003480;28;20070;-76
2022/06/19 14:14:25;;;;;;;;;;;18.10;99.90;;;;;;4981620;28;21187;-76
2022/06/19 14:16:56;;;;;;;;;;;18.00;99.90;;;;;;4982782;28;22772;-74
2022/06/19 14:19:33;;;;;;;;;;;17.90;99.90;;;;;;4984908;28;19916;-75
2022/06/19 14:22:13;;;;;;;;;;;17.60;99.90;;;;;;4991415;28;20709;-79
2022/06/19 14:24:38;;;;;;;;;;;17.50;99.90;;;;;;5001199;28;19968;-75
2022/06/19 14:27:04;;;;;;;;;;;17.50;99.90;;;;;;5002899;28;21553;-75
2022/06/19 14:29:42;;;;;;;;;;;17.50;99.90;;;;;;5002220;28;19923;-77
2022/06/19 14:32:12;;;;;;;;;;;17.40;99.90;;;;;;4998022;28;19943;-76
2022/06/19 14:34:46;;;;;;;;;;;17.30;99.90;;;;;;4981893;28;20007;-74
2022/06/19 14:37:28;;;;;;;;;;;17.10;99.90;;;;;;4987909;28;19916;-74
2022/06/19 14:39:55;;;;;;;;;;;17.00;99.90;;;;;;5002711;28;19916;-75
2022/06/19 14:42:20;;;;;;;;;;;16.90;99.90;;;;;;4996013;28;20903;-74